Time;durP1;ratioP1;P1;durP2;ratioP2;P2;SDS_P1;SDS_P2;PMS_P1;PMS_P2;Temp;Humidity;BMP_temperature;BMP_pressure;BME280_temperature;BME280_humidity;BME280_pressure;Samples;Min_cycle;Max_cycle;Signal;HPM_P1;HPM_P2
2021/01/26 00:01:27;;;;;;;5.53;1.10;;;12.90;75.20;;;;;;5003506;28;20513;-72
2021/01/26 00:03:54;;;;;;;3.25;0.98;;;12.30;76.30;;;;;;5013211;28;20041;-71
2021/01/26 00:06:21;;;;;;;6.20;1.25;;;12.50;77.00;;;;;;5011463;28;20046;-71
2021/01/26 00:08:48;;;;;;;5.32;1.00;;;12.50;76.80;;;;;;5011667;28;20372;-72
2021/01/26 00:11:15;;;;;;;7.97;1.95;;;12.70;77.20;;;;;;5011375;28;20394;-72
2021/01/26 00:13:42;;;;;;;4.38;0.88;;;11.90;76.70;;;;;;5012408;28;20033;-72
2021/01/26 00:16:09;;;;;;;5.38;1.25;;;11.70;79.20;;;;;;5012458;28;20390;-73
2021/01/26 00:18:39;;;;;;;4.93;0.88;;;11.40;78.70;;;;;;5012529;28;20026;-73
2021/01/26 00:21:05;;;;;;;8.20;2.40;;;10.60;80.00;;;;;;5011924;28;20041;-71
2021/01/26 00:23:32;;;;;;;5.35;0.95;;;10.40;82.50;;;;;;5012601;28;20022;-71
2021/01/26 00:25:59;;;;;;;5.50;1.08;;;10.10;84.50;;;;;;5012706;28;20025;-72
2021/01/26 00:28:26;;;;;;;5.65;0.98;;;10.20;85.10;;;;;;5012012;28;20034;-72
2021/01/26 00:30:53;;;;;;;5.38;1.00;;;10.00;85.90;;;;;;5011840;28;20026;-72
2021/01/26 00:33:22;;;;;;;5.65;0.90;;;9.60;87.10;;;;;;5004770;28;20030;-73
2021/01/26 00:35:50;;;;;;;5.97;1.02;;;9.30;88.70;;;;;;5011673;28;20045;-75
2021/01/26 00:38:18;;;;;;;4.75;0.80;;;9.00;90.20;;;;;;5011834;28;20390;-73
2021/01/26 00:40:45;;;;;;;6.25;1.58;;;8.70;90.90;;;;;;5012402;28;20478;-76
2021/01/26 00:43:13;;;;;;;10.15;1.98;;;8.50;91.70;;;;;;5012373;28;20026;-75
2021/01/26 00:45:40;;;;;;;6.43;1.15;;;8.30;92.40;;;;;;5012105;28;20045;-77
2021/01/26 00:48:07;;;;;;;4.90;1.10;;;8.10;93.30;;;;;;4994049;28;20048;-73
2021/01/26 00:50:35;;;;;;;8.73;1.35;;;7.90;93.70;;;;;;5010962;28;20041;-73
2021/01/26 00:53:02;;;;;;;7.60;1.10;;;7.80;94.60;;;;;;5005632;28;20490;-74
2021/01/26 00:55:31;;;;;;;7.88;1.83;;;7.60;95.20;;;;;;4992709;28;20053;-73
2021/01/26 00:57:58;;;;;;;4.15;0.75;;;7.50;96.10;;;;;;5011929;28;20053;-76
2021/01/26 01:00:30;;;;;;;5.10;0.93;;;7.30;97.00;;;;;;5011867;28;20033;-73
2021/01/26 01:02:57;;;;;;;9.07;2.25;;;7.30;97.80;;;;;;5012142;28;20056;-73
2021/01/26 01:05:24;;;;;;;8.15;0.80;;;7.20;98.30;;;;;;4993833;28;20076;-76
2021/01/26 01:07:53;;;;;;;6.65;1.42;;;7.10;98.60;;;;;;5012038;28;20022;-72
2021/01/26 01:10:27;;;;;;;8.20;1.02;;;7.00;99.30;;;;;;5011170;28;20045;-73
2021/01/26 01:12:53;;;;;;;6.95;1.50;;;6.80;99.90;;;;;;4994763;28;20034;-74
2021/01/26 01:15:21;;;;;;;8.15;1.25;;;6.70;99.90;;;;;;4991248;28;20039;-75
2021/01/26 01:17:49;;;;;;;9.05;1.10;;;6.60;99.90;;;;;;5000090;28;20049;-73
2021/01/26 01:20:20;;;;;;;6.70;1.20;;;6.50;99.90;;;;;;5006238;28;20406;-73
2021/01/26 01:22:47;;;;;;;4.93;1.35;;;6.50;99.90;;;;;;5009565;28;20029;-75
2021/01/26 01:25:14;;;;;;;6.13;2.08;;;6.40;99.90;;;;;;5011610;28;20379;-73
2021/01/26 01:27:41;;;;;;;6.47;1.15;;;6.40;99.90;;;;;;5011347;28;20034;-74
2021/01/26 01:30:11;;;;;;;8.00;1.58;;;6.30;99.90;;;;;;5011346;28;20106;-74
2021/01/26 01:32:39;;;;;;;5.93;1.23;;;6.30;99.90;;;;;;5009803;28;20386;-72
2021/01/26 01:35:07;;;;;;;7.00;0.93;;;6.20;99.90;;;;;;4992682;28;20053;-72
2021/01/26 01:37:34;;;;;;;6.00;1.25;;;6.20;99.90;;;;;;4992429;28;20057;-73
2021/01/26 01:40:01;;;;;;;6.85;1.20;;;6.10;99.90;;;;;;5011095;28;20057;-73
2021/01/26 01:42:30;;;;;;;12.98;1.67;;;6.10;99.90;;;;;;5011585;28;20033;-72
2021/01/26 01:44:58;;;;;;;3.72;1.15;;;6.10;99.90;;;;;;5011218;28;20506;-73
2021/01/26 01:47:32;;;;;;;6.40;1.05;;;6.00;99.90;;;;;;5011186;28;20033;-73
2021/01/26 01:50:01;;;;;;;9.40;2.03;;;6.00;99.90;;;;;;4995809;28;20033;-73
2021/01/26 01:52:33;;;;;;;6.13;1.42;;;5.90;99.90;;;;;;5013941;28;20034;-73
2021/01/26 01:55:08;;;;;;;10.40;1.80;;;5.90;99.90;;;;;;5013590;28;20058;-73
2021/01/26 01:57:38;;;;;;;5.95;1.25;;;5.90;99.90;;;;;;5015396;28;20061;-71
2021/01/26 02:00:10;;;;;;;10.75;1.90;;;5.80;99.90;;;;;;5013910;28;20072;-73
2021/01/26 02:02:42;;;;;;;12.40;1.77;;;5.80;99.90;;;;;;5015126;28;20493;-73
2021/01/26 02:05:09;;;;;;;11.85;1.65;;;5.80;99.90;;;;;;5013118;28;20497;-73
2021/01/26 02:07:36;;;;;;;4.75;1.13;;;5.70;99.90;;;;;;5013880;28;20418;-73
2021/01/26 02:10:04;;;;;;;9.23;1.42;;;5.70;99.90;;;;;;5014630;28;20405;-73
2021/01/26 02:12:31;;;;;;;8.05;1.60;;;5.60;99.90;;;;;;5015386;28;20033;-71
2021/01/26 02:14:59;;;;;;;7.93;1.52;;;5.60;99.90;;;;;;4996668;28;20038;-72
2021/01/26 02:17:53;;;;;;;8.50;1.45;;;5.60;99.90;;;;;;5014942;28;20045;-72
2021/01/26 02:21:12;;;;;;;8.30;1.42;;;5.50;99.90;;;;;;5016394;28;20026;-72
2021/01/26 02:23:51;;;;;;;7.20;1.20;;;5.50;99.90;;;;;;5015120;28;20022;-73
2021/01/26 02:26:50;;;;;;;9.30;1.67;;;5.40;99.90;;;;;;5011824;28;20038;-74
2021/01/26 02:29:28;;;;;;;7.55;1.55;;;5.40;99.90;;;;;;5014200;28;20040;-74
2021/01/26 02:32:23;;;;;;;11.50;1.95;;;5.40;99.90;;;;;;5014178;28;20030;-73
2021/01/26 02:35:11;;;;;;;19.50;3.72;;;5.30;99.90;;;;;;5014527;28;20370;-72
2021/01/26 02:38:10;;;;;;;7.78;1.60;;;5.20;99.90;;;;;;4996198;28;20053;-73
2021/01/26 02:40:42;;;;;;;6.43;1.83;;;5.20;99.90;;;;;;4924266;29;20042;-73
2021/01/26 02:43:47;;;;;;;7.93;1.40;;;5.20;99.90;;;;;;4933914;29;20063;-75
2021/01/26 02:46:44;;;;;;;11.45;1.65;;;5.10;99.90;;;;;;4920730;29;20048;-73
2021/01/26 02:49:21;;;;;;;9.15;2.28;;;5.10;99.90;;;;;;4930036;29;20067;-74
2021/01/26 02:51:51;;;;;;;10.07;1.45;;;5.10;99.90;;;;;;4916220;29;20028;-74
2021/01/26 02:54:56;;;;;;;12.80;1.52;;;5.10;99.90;;;;;;4900949;29;20040;-75
2021/01/26 02:57:44;;;;;;;6.95;1.40;;;5.00;99.90;;;;;;4905210;29;20052;-73
2021/01/26 03:00:22;;;;;;;6.88;1.67;;;5.00;99.90;;;;;;4913024;29;20048;-74
2021/01/26 03:03:07;;;;;;;15.98;2.42;;;5.00;99.90;;;;;;4900935;29;20071;-73
2021/01/26 03:06:09;;;;;;;7.43;1.20;;;5.00;99.90;;;;;;4914463;29;20044;-74
2021/01/26 03:08:52;;;;;;;7.28;1.80;;;4.90;99.90;;;;;;4841491;29;20057;-75
2021/01/26 03:11:44;;;;;;;7.28;1.42;;;4.90;99.90;;;;;;4835892;29;20053;-73
2021/01/26 03:14:16;;;;;;;;;;;4.90;99.90;;;;;;4859119;29;20037;-73
2021/01/26 03:16:52;;;;;;;5.72;1.30;;;4.90;99.90;;;;;;4880417;29;19926;-75
2021/01/26 03:19:23;;;;;;;11.85;2.20;;;4.90;99.90;;;;;;4914779;29;20160;-74
2021/01/26 03:21:55;;;;;;;11.95;1.85;;;4.80;99.90;;;;;;4904363;29;20039;-74
2021/01/26 03:24:31;;;;;;;10.90;1.60;;;4.80;99.90;;;;;;4895418;29;20040;-74
2021/01/26 03:27:00;;;;;;;10.65;2.10;;;4.80;99.90;;;;;;4897222;29;20067;-74
2021/01/26 03:29:30;;;;;;;11.25;2.65;;;4.80;99.90;;;;;;4900185;29;20037;-73
2021/01/26 03:32:05;;;;;;;9.48;1.75;;;4.80;99.90;;;;;;4892610;29;20040;-74
2021/01/26 03:34:36;;;;;;;12.18;1.65;;;4.70;99.90;;;;;;4898802;29;20040;-74
2021/01/26 03:37:04;;;;;;;9.20;1.70;;;4.70;99.90;;;;;;4922699;29;20051;-73
2021/01/26 03:39:31;;;;;;;10.35;2.03;;;4.70;99.90;;;;;;4934201;29;20043;-74
2021/01/26 03:42:00;;;;;;;6.53;1.30;;;4.70;99.90;;;;;;4933155;29;20039;-73
2021/01/26 03:44:28;;;;;;;8.30;1.75;;;4.60;99.90;;;;;;4981027;28;20045;-72
2021/01/26 03:47:22;;;;;;;14.20;2.30;;;4.70;99.90;;;;;;5013039;28;20048;-75
2021/01/26 03:50:11;;;;;;;5.93;1.33;;;4.60;99.90;;;;;;4915292;29;20429;-74
2021/01/26 03:53:28;;;;;;;5.50;1.67;;;4.60;99.90;;;;;;4918973;29;20377;-74
2021/01/26 03:56:38;;;;;;;6.07;1.50;;;4.60;99.90;;;;;;4912220;29;20051;-74
2021/01/26 03:59:48;;;;;;;9.40;2.80;;;4.50;99.90;;;;;;4896575;29;20518;-73
2021/01/26 04:02:24;;;;;;;4.68;0.88;;;4.60;99.90;;;;;;4880401;29;20049;-72
2021/01/26 04:05:16;;;;;;;6.68;1.70;;;4.60;99.90;;;;;;4888063;29;20056;-70
2021/01/26 04:07:48;;;;;;;5.00;1.42;;;4.60;99.90;;;;;;4878519;29;20048;-73
2021/01/26 04:10:19;;;;;;;;;;;4.60;99.90;;;;;;4878043;29;20049;-72
2021/01/26 04:12:52;;;;;;;4.88;0.85;;;4.60;99.90;;;;;;4877030;29;20038;-72
2021/01/26 04:15:29;;;;;;;4.20;1.48;;;4.60;99.90;;;;;;4886416;29;20033;-73
2021/01/26 04:17:57;;;;;;;9.25;1.50;;;4.60;99.90;;;;;;4895365;29;20056;-71
2021/01/26 04:20:28;;;;;;;3.72;1.27;;;4.60;99.90;;;;;;4889066;29;20041;-73
2021/01/26 04:22:56;;;;;;;;;;;4.60;99.90;;;;;;4877400;29;20045;-74
2021/01/26 04:25:29;;;;;;;7.40;3.03;;;4.60;99.90;;;;;;4886083;29;19912;-74
2021/01/26 04:27:57;;;;;;;8.48;2.05;;;4.50;99.90;;;;;;4911541;29;20135;-73
2021/01/26 04:30:24;;;;;;;4.57;1.10;;;4.60;99.90;;;;;;4929829;29;20404;-73
2021/01/26 04:33:18;;;;;;;7.35;1.20;;;4.60;99.90;;;;;;4932418;29;20035;-74
2021/01/26 04:35:45;;;;;;;4.22;0.90;;;4.60;99.90;;;;;;5004533;28;20046;-74
2021/01/26 04:38:15;;;;;;;3.28;0.80;;;4.50;99.90;;;;;;4994558;28;20046;-74
2021/01/26 04:40:43;;;;;;;4.20;0.80;;;4.50;99.90;;;;;;5012244;28;20030;-74
2021/01/26 04:43:35;;;;;;;5.20;0.85;;;4.50;99.90;;;;;;5012408;28;20022;-73
2021/01/26 04:46:11;;;;;;;4.68;0.73;;;4.40;99.90;;;;;;5000685;28;20399;-71
2021/01/26 04:49:06;;;;;;;3.40;1.40;;;4.40;99.90;;;;;;4994035;28;20038;-71
2021/01/26 04:51:58;;;;;;;7.38;1.77;;;4.40;99.90;;;;;;5011140;28;20030;-72
2021/01/26 04:54:52;;;;;;;1.80;0.60;;;4.40;99.90;;;;;;5011266;28;20053;-70
2021/01/26 04:57:22;;;;;;;6.55;0.90;;;4.40;99.90;;;;;;5011704;28;20045;-73
2021/01/26 04:59:58;;;;;;;10.32;2.72;;;4.40;99.90;;;;;;5011519;28;20025;-71
2021/01/26 05:02:34;;;;;;;3.88;0.70;;;4.40;99.90;;;;;;5011393;28;20030;-72
2021/01/26 05:05:06;;;;;;;2.25;0.80;;;4.30;99.90;;;;;;5011131;28;20028;-74
2021/01/26 05:08:02;;;;;;;2.78;0.70;;;4.30;99.90;;;;;;5011715;28;20470;-73
2021/01/26 05:10:50;;;;;;;5.65;1.02;;;4.30;99.90;;;;;;5008630;28;20046;-73
2021/01/26 05:13:37;;;;;;;1.85;0.60;;;4.30;99.90;;;;;;5011674;28;20037;-71
2021/01/26 05:16:30;;;;;;;9.40;0.82;;;4.30;99.90;;;;;;5011174;28;20044;-71
2021/01/26 05:19:09;;;;;;;4.03;0.77;;;4.20;99.90;;;;;;5011632;28;20088;-71
2021/01/26 05:21:40;;;;;;;2.67;1.02;;;4.20;99.90;;;;;;5011442;28;20161;-71
2021/01/26 05:24:42;;;;;;;5.10;0.70;;;4.20;99.90;;;;;;5010849;28;20025;-70
2021/01/26 05:27:10;;;;;;;7.38;0.93;;;4.10;99.90;;;;;;5006042;28;20050;-70
2021/01/26 05:29:37;;;;;;;3.65;0.80;;;4.10;99.90;;;;;;5011374;28;20037;-71
2021/01/26 05:32:08;;;;;;;0.95;0.43;;;4.10;99.90;;;;;;5010366;28;20065;-71
2021/01/26 05:34:40;;;;;;;3.03;0.60;;;4.10;99.90;;;;;;5011079;28;20022;-71
2021/01/26 05:37:10;;;;;;;1.85;0.60;;;4.10;99.90;;;;;;5010301;28;20046;-72
2021/01/26 05:39:45;;;;;;;5.72;0.70;;;4.10;99.90;;;;;;5011323;28;20026;-72
2021/01/26 05:42:14;;;;;;;3.78;0.50;;;4.10;99.90;;;;;;5011459;28;20026;-71
2021/01/26 05:44:54;;;;;;;2.78;0.77;;;4.00;99.90;;;;;;5010403;28;20545;-70
2021/01/26 05:47:33;;;;;;;2.28;0.60;;;4.00;99.90;;;;;;5010210;28;20046;-72
2021/01/26 05:50:00;;;;;;;2.92;0.60;;;4.10;99.90;;;;;;5011694;28;20026;-71
2021/01/26 05:52:39;;;;;;;3.35;0.50;;;4.00;99.90;;;;;;5011543;28;20478;-70
2021/01/26 05:55:27;;;;;;;4.22;1.63;;;4.00;99.90;;;;;;5010388;28;20042;-70
2021/01/26 05:58:05;;;;;;;4.63;0.70;;;4.00;99.90;;;;;;4991610;28;20367;-71
2021/01/26 06:00:32;;;;;;;4.88;1.02;;;4.00;99.90;;;;;;5009659;28;20049;-72
2021/01/26 06:03:10;;;;;;;3.38;0.90;;;3.90;99.90;;;;;;5011562;28;20033;-71
2021/01/26 06:05:37;;;;;;;4.18;0.70;;;3.90;99.90;;;;;;5009894;28;20042;-71
2021/01/26 06:08:13;;;;;;;5.18;0.93;;;3.90;99.90;;;;;;5011070;28;20041;-71
2021/01/26 06:10:42;;;;;;;4.15;0.75;;;3.90;99.90;;;;;;5011712;28;20030;-70
2021/01/26 06:13:10;;;;;;;2.88;0.70;;;3.90;99.90;;;;;;5010991;28;20030;-71
2021/01/26 06:15:40;;;;;;;2.67;0.70;;;3.90;99.90;;;;;;5011319;28;20026;-72
2021/01/26 06:18:11;;;;;;;4.68;0.70;;;3.90;99.90;;;;;;5010601;28;20045;-71
2021/01/26 06:20:38;;;;;;;5.50;1.30;;;3.90;99.90;;;;;;4998212;28;20049;-72
2021/01/26 06:23:20;;;;;;;8.82;0.75;;;3.90;99.90;;;;;;5010423;28;20046;-71
2021/01/26 06:25:53;;;;;;;3.03;0.90;;;3.90;99.90;;;;;;5009972;28;20049;-71
2021/01/26 06:28:53;;;;;;;3.75;0.63;;;3.90;99.90;;;;;;5010175;28;20041;-72
2021/01/26 06:31:35;;;;;;;3.80;0.70;;;3.90;99.90;;;;;;5010957;28;20034;-71
2021/01/26 06:34:16;;;;;;;;;;;3.90;99.90;;;;;;5011517;28;20026;-70
2021/01/26 06:37:05;;;;;;;8.50;1.00;;;3.90;99.90;;;;;;5012043;28;19924;-70
2021/01/26 06:39:45;;;;;;;2.33;0.68;;;3.90;99.90;;;;;;5014508;28;20041;-71
2021/01/26 06:42:33;;;;;;;1.98;0.60;;;3.80;99.90;;;;;;5014953;28;20374;-71
2021/01/26 06:45:24;;;;;;;3.53;1.08;;;3.80;99.90;;;;;;5014188;28;20049;-71
2021/01/26 06:48:08;;;;;;;4.83;1.30;;;3.80;99.90;;;;;;5014644;28;20481;-70
2021/01/26 06:51:02;;;;;;;4.22;0.80;;;3.80;99.90;;;;;;5013823;28;20026;-71
2021/01/26 06:53:47;;;;;;;5.22;1.13;;;3.70;99.90;;;;;;4995231;28;20467;-70
2021/01/26 06:56:29;;;;;;;4.88;0.98;;;3.70;99.90;;;;;;4991792;28;20053;-71
2021/01/26 06:59:30;;;;;;;2.25;1.10;;;3.80;99.90;;;;;;5018569;28;20034;-75
2021/01/26 07:02:05;;;;;;;3.92;0.70;;;3.80;99.90;;;;;;5013996;28;20037;-70
2021/01/26 07:04:58;;;;;;;3.72;0.93;;;3.70;99.90;;;;;;5013937;28;20060;-70
2021/01/26 07:07:47;;;;;;;2.75;0.95;;;3.70;99.90;;;;;;5012819;28;20045;-71
2021/01/26 07:10:38;;;;;;;3.15;0.70;;;3.70;99.90;;;;;;5001350;28;20043;-71
2021/01/26 07:13:17;;;;;;;1.20;0.60;;;3.60;99.90;;;;;;5013803;28;20052;-70
2021/01/26 07:16:23;;;;;;;4.70;0.77;;;3.70;99.90;;;;;;5004800;28;20084;-72
2021/01/26 07:19:06;;;;;;;5.90;0.80;;;3.60;99.90;;;;;;5003167;28;20042;-71
2021/01/26 07:21:48;;;;;;;6.30;0.80;;;3.60;99.90;;;;;;5014329;28;20056;-73
2021/01/26 07:24:17;;;;;;;;;;;3.60;99.90;;;;;;5014619;28;20030;-73
2021/01/26 07:26:56;;;;;;;1.35;0.60;;;3.60;99.90;;;;;;5013919;28;19905;-73
2021/01/26 07:29:45;;;;;;;3.55;0.70;;;3.60;99.90;;;;;;4994847;28;20034;-71
2021/01/26 07:32:35;;;;;;;1.38;0.50;;;3.60;99.90;;;;;;5012312;28;20026;-72
2021/01/26 07:35:34;;;;;;;3.97;0.75;;;3.50;99.90;;;;;;4934170;29;20039;-73
2021/01/26 07:38:07;;;;;;;1.90;0.47;;;3.50;99.90;;;;;;4928450;29;20067;-72
2021/01/26 07:41:06;;;;;;;3.05;0.52;;;3.50;99.90;;;;;;4933592;29;20063;-72
2021/01/26 07:43:48;;;;;;;5.68;1.45;;;3.50;99.90;;;;;;4914672;29;20210;-71
2021/01/26 07:46:37;;;;;;;9.48;0.80;;;3.40;99.90;;;;;;4931919;29;20044;-72
2021/01/26 07:49:24;;;;;;;6.75;0.70;;;3.40;99.90;;;;;;4932897;29;20040;-71
2021/01/26 07:51:58;;;;;;;0.98;0.40;;;3.40;99.90;;;;;;4933833;29;20088;-70
2021/01/26 07:54:35;;;;;;;3.20;0.55;;;3.40;99.90;;;;;;4933702;29;20516;-71
2021/01/26 07:57:04;;;;;;;2.45;0.60;;;3.40;99.90;;;;;;4933758;29;20056;-70
2021/01/26 07:59:53;;;;;;;3.15;1.25;;;3.40;99.90;;;;;;4933417;29;20050;-70
2021/01/26 08:02:31;;;;;;;4.65;1.77;;;3.40;99.90;;;;;;4932959;29;20043;-70
2021/01/26 08:04:58;;;;;;;3.33;0.65;;;3.30;99.90;;;;;;4932525;29;20059;-71
2021/01/26 08:07:30;;;;;;;3.58;0.68;;;3.20;99.90;;;;;;4933632;29;20043;-71
2021/01/26 08:10:01;;;;;;;5.45;0.60;;;3.20;99.90;;;;;;4932301;29;20048;-70
2021/01/26 08:12:31;;;;;;;3.58;0.88;;;3.20;99.90;;;;;;4984387;28;20053;-70
2021/01/26 08:15:27;;;;;;;2.45;0.40;;;3.20;99.90;;;;;;5013082;28;20034;-70
2021/01/26 08:17:55;;;;;;;1.25;0.30;;;3.20;99.90;;;;;;5002741;28;20046;-70
2021/01/26 08:20:24;;;;;;;9.88;0.93;;;3.20;99.90;;;;;;5012860;28;20033;-70
2021/01/26 08:23:04;;;;;;;3.25;0.70;;;3.20;99.90;;;;;;5011776;28;20037;-72
2021/01/26 08:25:37;;;;;;;1.92;0.45;;;3.20;99.90;;;;;;5012905;28;20026;-71
2021/01/26 08:28:31;;;;;;;4.40;0.77;;;3.20;99.90;;;;;;5015829;28;20056;-73
2021/01/26 08:31:00;;;;;;;1.77;0.38;;;3.30;99.90;;;;;;5013428;28;20018;-72
2021/01/26 08:33:30;;;;;;;0.88;0.40;;;3.20;99.90;;;;;;5012537;28;20041;-74
2021/01/26 08:36:25;;;;;;;4.53;0.47;;;3.20;99.90;;;;;;5013030;28;20033;-73
2021/01/26 08:38:58;;;;;;;3.90;0.52;;;3.20;99.90;;;;;;5012621;28;20056;-72
2021/01/26 08:41:49;;;;;;;2.75;0.50;;;3.20;99.90;;;;;;5012429;28;20044;-74
2021/01/26 08:44:18;;;;;;;2.88;0.52;;;3.20;99.90;;;;;;5012585;28;20480;-72
2021/01/26 08:46:47;;;;;;;1.17;0.38;;;3.20;99.90;;;;;;5012193;28;20050;-72
2021/01/26 08:49:21;;;;;;;1.60;0.38;;;3.20;99.90;;;;;;5011483;28;20026;-70
2021/01/26 08:51:49;;;;;;;3.40;0.85;;;3.20;99.90;;;;;;5012438;28;20030;-70
2021/01/26 08:54:43;;;;;;;1.70;0.40;;;3.20;99.90;;;;;;5012076;28;20591;-71
2021/01/26 08:57:28;;;;;;;1.23;0.30;;;3.30;99.90;;;;;;5010790;28;20061;-70
2021/01/26 09:00:19;;;;;;;2.55;0.38;;;3.30;99.90;;;;;;5008066;28;20033;-71
2021/01/26 09:02:50;;;;;;;3.33;0.40;;;3.20;99.90;;;;;;4982218;28;20042;-71
2021/01/26 09:05:36;;;;;;;2.90;0.40;;;3.30;99.90;;;;;;4993288;28;20057;-71
2021/01/26 09:08:07;;;;;;;5.10;1.13;;;3.20;99.90;;;;;;5011818;28;20026;-70
2021/01/26 09:10:54;;;;;;;4.50;0.45;;;3.30;99.90;;;;;;5010596;28;20045;-70
2021/01/26 09:13:33;;;;;;;1.48;0.30;;;3.20;99.90;;;;;;5011937;28;20057;-71
2021/01/26 09:16:33;;;;;;;1.25;0.30;;;3.30;99.90;;;;;;5010878;28;20038;-71
2021/01/26 09:19:24;;;;;;;2.40;0.30;;;3.30;99.90;;;;;;4913040;29;20052;-71
2021/01/26 09:21:51;;;;;;;3.15;0.82;;;3.30;99.90;;;;;;4837490;29;20041;-73
2021/01/26 09:24:22;;;;;;;2.63;0.40;;;3.30;99.90;;;;;;4838945;29;21247;-71
2021/01/26 09:26:50;;;;;;;3.13;0.85;;;3.30;99.90;;;;;;4838314;29;20060;-73
2021/01/26 09:29:28;;;;;;;2.85;0.60;;;3.30;99.90;;;;;;4838395;29;20053;-71
2021/01/26 09:31:56;;;;;;;1.75;0.52;;;3.30;99.90;;;;;;4839031;29;20506;-72
2021/01/26 09:34:28;;;;;;;1.35;0.50;;;3.30;99.90;;;;;;4838455;29;20461;-72
2021/01/26 09:37:21;;;;;;;1.45;0.38;;;3.30;99.90;;;;;;4837844;29;20457;-71
2021/01/26 09:39:48;;;;;;;1.20;0.30;;;3.20;99.90;;;;;;4838576;29;20069;-71
2021/01/26 09:42:22;;;;;;;1.15;0.55;;;3.20;99.90;;;;;;4838208;29;20575;-71
2021/01/26 09:45:18;;;;;;;2.78;0.40;;;3.10;99.90;;;;;;4838673;29;20423;-70
2021/01/26 09:47:49;;;;;;;1.40;0.50;;;3.20;99.90;;;;;;4836695;29;20053;-70
2021/01/26 09:50:20;;;;;;;0.95;0.30;;;3.20;99.90;;;;;;4838570;29;20042;-70
2021/01/26 09:52:47;;;;;;;4.03;0.57;;;3.20;99.90;;;;;;4838370;29;20038;-70
2021/01/26 09:55:15;;;;;;;1.15;0.40;;;3.20;99.90;;;;;;4894268;29;20051;-70
2021/01/26 09:57:43;;;;;;;0.75;0.30;;;3.20;99.90;;;;;;4913495;28;20055;-71
2021/01/26 10:00:16;;;;;;;3.00;0.40;;;3.20;99.90;;;;;;5013579;28;20041;-73
2021/01/26 10:02:44;;;;;;;1.30;0.38;;;3.20;99.90;;;;;;4992000;28;20056;-70
2021/01/26 10:05:13;;;;;;;3.47;0.20;;;3.20;99.90;;;;;;4991262;28;20042;-71
2021/01/26 10:07:41;;;;;;;2.33;0.47;;;3.20;99.90;;;;;;5011391;28;20052;-71
2021/01/26 10:10:20;;;;;;;1.13;0.32;;;3.10;99.90;;;;;;5011820;28;20651;-71
2021/01/26 10:12:47;;;;;;;1.98;0.32;;;3.10;99.90;;;;;;4999338;28;20041;-72
2021/01/26 10:15:23;;;;;;;0.60;0.30;;;3.10;99.90;;;;;;5015079;28;20029;-72
2021/01/26 10:17:54;;;;;;;4.53;1.02;;;3.00;99.90;;;;;;5015033;28;20038;-71
2021/01/26 10:20:29;;;;;;;2.80;0.38;;;3.00;99.90;;;;;;5014670;28;20382;-73
2021/01/26 10:23:08;;;;;;;1.70;0.35;;;3.00;99.90;;;;;;5014145;28;20049;-73
2021/01/26 10:25:36;;;;;;;2.55;0.30;;;3.00;99.90;;;;;;4996823;28;20038;-72
2021/01/26 10:28:19;;;;;;;3.40;0.50;;;3.00;99.90;;;;;;5014029;28;20045;-71
2021/01/26 10:30:48;;;;;;;4.10;0.60;;;2.90;99.90;;;;;;5013205;28;20390;-73
2021/01/26 10:33:41;;;;;;;1.77;0.40;;;2.90;99.90;;;;;;5015008;28;20026;-74
2021/01/26 10:36:31;;;;;;;1.48;0.30;;;2.80;99.90;;;;;;5012734;28;20522;-73
2021/01/26 10:39:21;;;;;;;3.38;0.22;;;2.70;99.90;;;;;;5005811;28;20506;-72
2021/01/26 10:42:12;;;;;;;1.63;0.57;;;2.70;99.90;;;;;;5014850;28;20521;-72
2021/01/26 10:44:53;;;;;;;2.28;0.30;;;2.70;99.90;;;;;;5014744;28;20525;-72
2021/01/26 10:47:28;;;;;;;1.95;0.45;;;2.70;99.90;;;;;;5014344;28;20030;-73
2021/01/26 10:50:06;;;;;;;2.28;0.65;;;2.70;99.90;;;;;;5014801;28;20026;-73
2021/01/26 10:52:35;;;;;;;0.65;0.20;;;2.70;99.90;;;;;;4998181;28;20108;-73
2021/01/26 10:55:04;;;;;;;2.15;0.40;;;2.60;99.90;;;;;;5013980;28;20037;-72
2021/01/26 10:57:31;;;;;;;2.33;0.50;;;2.60;99.90;;;;;;5013936;28;20092;-73
2021/01/26 10:59:58;;;;;;;5.32;0.40;;;2.60;99.90;;;;;;5013435;28;20042;-72
2021/01/26 11:02:24;;;;;;;1.98;0.55;;;2.70;99.90;;;;;;5014498;28;20022;-72
2021/01/26 11:04:51;;;;;;;2.42;0.40;;;2.70;99.90;;;;;;4995814;28;20046;-73
2021/01/26 11:07:19;;;;;;;2.45;0.30;;;2.80;99.90;;;;;;4998305;28;20042;-72
2021/01/26 11:09:48;;;;;;;1.08;0.28;;;2.80;99.90;;;;;;5010677;28;20026;-74
2021/01/26 11:12:18;;;;;;;2.13;0.52;;;2.80;99.90;;;;;;5013381;28;20038;-72
2021/01/26 11:14:49;;;;;;;2.22;0.50;;;2.70;99.90;;;;;;5014764;28;20026;-74
2021/01/26 11:17:19;;;;;;;2.83;0.65;;;2.70;99.90;;;;;;5014644;28;20026;-74
2021/01/26 11:19:47;;;;;;;2.00;0.30;;;2.60;99.90;;;;;;5013820;28;20501;-73
2021/01/26 11:22:15;;;;;;;2.15;0.38;;;2.60;99.90;;;;;;5013116;28;20438;-74
2021/01/26 11:24:43;;;;;;;1.58;0.43;;;2.50;99.90;;;;;;5014073;28;20386;-73
2021/01/26 11:27:11;;;;;;;0.20;0.20;;;2.40;99.90;;;;;;5014134;28;20033;-74
2021/01/26 11:29:38;;;;;;;2.40;0.60;;;2.50;99.90;;;;;;5015687;28;20034;-75
2021/01/26 11:32:05;;;;;;;1.75;0.40;;;2.50;99.90;;;;;;5013848;28;20057;-74
2021/01/26 11:34:33;;;;;;;2.10;0.50;;;2.50;99.90;;;;;;5014088;28;20037;-71
2021/01/26 11:37:00;;;;;;;1.23;0.30;;;2.60;99.90;;;;;;5013493;28;20466;-72
2021/01/26 11:39:27;;;;;;;0.75;0.20;;;2.60;99.90;;;;;;5013645;28;20046;-72
2021/01/26 11:41:53;;;;;;;1.33;0.30;;;2.70;99.90;;;;;;5013544;28;20100;-71
2021/01/26 11:44:21;;;;;;;1.08;0.40;;;2.70;99.90;;;;;;5013575;28;20393;-71
2021/01/26 11:46:48;;;;;;;1.33;0.45;;;2.70;99.90;;;;;;5013284;28;20038;-74
2021/01/26 11:49:15;;;;;;;1.60;0.45;;;2.70;99.90;;;;;;5013733;28;20034;-73
2021/01/26 11:51:42;;;;;;;1.48;0.50;;;2.60;99.90;;;;;;4994944;28;20513;-74
2021/01/26 11:54:09;;;;;;;0.90;0.30;;;2.60;99.90;;;;;;5013398;28;20045;-73
2021/01/26 11:56:36;;;;;;;1.55;0.30;;;2.40;99.90;;;;;;5014241;28;20030;-73
2021/01/26 11:59:02;;;;;;;3.03;0.28;;;2.40;99.90;;;;;;5013594;28;20049;-74
2021/01/26 12:01:30;;;;;;;3.13;0.40;;;2.30;99.90;;;;;;5013516;28;20474;-73
2021/01/26 12:03:57;;;;;;;1.05;0.30;;;2.20;99.90;;;;;;5012095;28;20045;-73
2021/01/26 12:06:24;;;;;;;0.68;0.30;;;2.00;99.90;;;;;;5013255;28;20033;-74
2021/01/26 12:08:52;;;;;;;2.00;0.30;;;2.00;99.90;;;;;;5013203;28;20037;-74
2021/01/26 12:11:21;;;;;;;0.22;0.20;;;1.90;99.90;;;;;;5012265;28;20030;-73
2021/01/26 12:13:48;;;;;;;3.08;0.50;;;1.90;99.90;;;;;;5012763;28;20068;-72
2021/01/26 12:16:15;;;;;;;0.85;0.30;;;2.00;99.90;;;;;;5013409;28;20033;-73
2021/01/26 12:18:42;;;;;;;1.63;0.45;;;2.00;99.90;;;;;;5013107;28;20033;-73
2021/01/26 12:21:09;;;;;;;2.10;0.45;;;2.10;99.90;;;;;;5013561;28;20025;-73
2021/01/26 12:23:36;;;;;;;1.33;0.28;;;2.00;99.90;;;;;;5013088;28;20034;-73
2021/01/26 12:26:07;;;;;;;0.90;0.50;;;2.00;99.90;;;;;;5009528;28;20025;-73
2021/01/26 12:28:34;;;;;;;2.03;0.30;;;2.10;99.90;;;;;;5013512;28;20470;-73
2021/01/26 12:31:01;;;;;;;1.50;0.60;;;2.00;99.90;;;;;;5013121;28;20034;-73
2021/01/26 12:33:28;;;;;;;0.47;0.32;;;1.90;99.90;;;;;;5012248;28;20022;-73
2021/01/26 12:35:55;;;;;;;0.95;0.20;;;1.90;99.90;;;;;;5012515;28;20025;-73
2021/01/26 12:38:22;;;;;;;0.90;0.20;;;1.80;99.90;;;;;;5013152;28;20478;-76
2021/01/26 12:40:49;;;;;;;3.38;0.40;;;1.80;99.90;;;;;;5013500;28;20034;-74
2021/01/26 12:43:16;;;;;;;0.80;0.40;;;1.90;99.90;;;;;;5014003;28;20374;-73
2021/01/26 12:45:43;;;;;;;1.00;0.30;;;2.00;99.90;;;;;;5012873;28;20034;-73
2021/01/26 12:48:10;;;;;;;2.10;0.30;;;2.10;99.90;;;;;;5012562;28;20041;-74
2021/01/26 12:50:41;;;;;;;1.70;0.60;;;2.10;99.90;;;;;;5012519;28;20382;-74
2021/01/26 12:53:08;;;;;;;1.95;0.45;;;2.10;99.90;;;;;;5012838;28;20382;-73
2021/01/26 12:55:35;;;;;;;1.48;0.43;;;2.10;99.90;;;;;;5012702;28;20022;-74
2021/01/26 12:58:03;;;;;;;1.92;0.35;;;2.00;99.90;;;;;;5012058;28;20044;-74
2021/01/26 13:00:30;;;;;;;1.70;0.20;;;1.90;99.90;;;;;;5012610;28;20542;-73
2021/01/26 13:02:57;;;;;;;1.35;0.35;;;1.70;99.90;;;;;;5012595;28;20034;-74
2021/01/26 13:05:25;;;;;;;0.45;0.32;;;1.80;99.90;;;;;;5012371;28;20022;-74
2021/01/26 13:07:52;;;;;;;0.77;0.30;;;1.80;99.90;;;;;;5012108;28;20030;-73
2021/01/26 13:10:20;;;;;;;1.27;0.45;;;1.80;99.90;;;;;;5012148;28;20677;-73
2021/01/26 13:12:47;;;;;;;0.60;0.20;;;1.80;99.90;;;;;;5004929;28;20026;-75
2021/01/26 13:15:16;;;;;;;1.98;0.30;;;1.80;99.90;;;;;;5012744;28;20386;-74
2021/01/26 13:17:43;;;;;;;0.57;0.40;;;1.80;99.90;;;;;;5012181;28;20359;-74
2021/01/26 13:20:11;;;;;;;0.80;0.30;;;1.90;99.90;;;;;;5012785;28;20386;-74
2021/01/26 13:22:39;;;;;;;1.58;0.30;;;1.90;99.90;;;;;;5000597;28;20025;-73
2021/01/26 13:25:07;;;;;;;2.65;0.55;;;2.00;99.90;;;;;;5012762;28;20374;-73
2021/01/26 13:27:35;;;;;;;1.73;0.50;;;2.10;99.90;;;;;;5011734;28;20053;-73
2021/01/26 13:30:05;;;;;;;2.70;0.47;;;2.20;99.90;;;;;;5012128;28;20026;-73
2021/01/26 13:32:32;;;;;;;1.42;0.40;;;2.30;99.90;;;;;;5011944;28;20030;-74
2021/01/26 13:34:59;;;;;;;2.90;0.30;;;2.20;99.90;;;;;;5012321;28;20033;-73
2021/01/26 13:37:26;;;;;;;1.25;0.68;;;2.20;99.90;;;;;;5012328;28;20053;-73
2021/01/26 13:39:52;;;;;;;0.80;0.30;;;2.20;99.90;;;;;;5012150;28;20492;-72